Time;durP1;ratioP1;P1;durP2;ratioP2;P2;SDS_P1;SDS_P2;PMS_P1;PMS_P2;Temp;Humidity;BMP_temperature;BMP_pressure;BME280_temperature;BME280_humidity;BME280_pressure;Samples;Min_cycle;Max_cycle;Signal;HPM_P1;HPM_P2
2023/03/08 00:00:32;;;;;;;;;;;;;;;6.51;80.19;99336.34;5050608;28;19982;-28
2023/03/08 00:02:57;;;;;;;;;;;;;;;6.54;79.88;99335.94;5052373;28;20003;-29
2023/03/08 00:05:22;;;;;;;;;;;;;;;6.61;79.91;99330.63;5051834;28;20296;-30
2023/03/08 00:07:51;;;;;;;;;;;;;;;6.62;79.19;99338.34;5052190;28;19919;-30
2023/03/08 00:10:16;;;;;;;;;;;;;;;6.87;77.80;99339.47;5052200;28;20003;-28
2023/03/08 00:12:41;;;;;;;;;;;;;;;6.93;77.23;99342.06;5051545;28;20394;-29
2023/03/08 00:15:07;;;;;;;;;;;;;;;6.83;76.92;99334.56;5052195;28;19913;-29
2023/03/08 00:17:34;;;;;;;;;;;;;;;7.07;76.12;99336.69;5051982;28;19986;-29
2023/03/08 00:19:59;;;;;;;;;;;;;;;6.92;76.58;99342.28;5052432;28;19966;-29
2023/03/08 00:22:25;;;;;;;;;;;;;;;6.87;76.91;99344.78;5052305;28;19913;-32
2023/03/08 00:24:51;;;;;;;;;;;;;;;6.62;77.96;99338.34;5052108;28;19924;-29
2023/03/08 00:27:16;;;;;;;;;;;;;;;6.57;78.75;99347.94;5052024;28;19916;-29
2023/03/08 00:29:42;;;;;;;;;;;;;;;6.62;79.36;99345.50;5052181;28;19913;-29
2023/03/08 00:32:07;;;;;;;;;;;;;;;6.39;80.48;99344.13;5051853;28;19917;-29
2023/03/08 00:34:32;;;;;;;;;;;;;;;6.44;80.27;99341.69;5052304;28;20627;-29
2023/03/08 00:36:57;;;;;;;;;;;;;;;6.41;80.47;99341.28;5051974;28;19912;-29
2023/03/08 00:39:23;;;;;;;;;;;;;;;6.39;81.37;99341.47;5051682;28;20007;-29
2023/03/08 00:41:48;;;;;;;;;;;;;;;6.57;79.92;99337.34;5051909;28;20426;-27
2023/03/08 00:44:13;;;;;;;;;;;;;;;6.82;78.84;99338.25;5051437;28;19920;-29
2023/03/08 00:46:38;;;;;;;;;;;;;;;6.63;79.26;99339.16;5051581;28;20377;-29
2023/03/08 00:49:04;;;;;;;;;;;;;;;6.35;80.76;99327.03;5050434;28;19913;-30
2023/03/08 00:51:29;;;;;;;;;;;;;;;6.16;81.82;99334.03;5051616;28;19966;-29
2023/03/08 00:53:54;;;;;;;;;;;;;;;6.33;79.25;99328.28;5051419;28;19913;-29
2023/03/08 00:56:20;;;;;;;;;;;;;;;6.00;79.25;99334.47;5051595;28;19982;-30
2023/03/08 00:58:45;;;;;;;;;;;;;;;6.17;81.10;99324.25;5051453;28;19917;-29
2023/03/08 01:01:12;;;;;;;;;;;;;;;6.00;81.57;99332.63;5051393;28;20459;-29
2023/03/08 01:03:38;;;;;;;;;;;;;;;5.90;82.38;99329.56;5051341;28;19917;-29
2023/03/08 01:06:07;;;;;;;;;;;;;;;5.32;81.84;99332.06;5051437;28;19917;-30
2023/03/08 01:08:32;;;;;;;;;;;;;;;5.17;80.26;99337.50;5051331;28;20373;-29
2023/03/08 01:10:59;;;;;;;;;;;;;;;5.31;78.75;99330.41;5051233;28;19951;-31
2023/03/08 01:13:32;;;;;;;;;;;;;;;5.33;80.31;99338.97;5051067;28;19913;-29
2023/03/08 01:15:58;;;;;;;;;;;;;;;5.37;83.20;99324.31;5051124;28;19922;-29
2023/03/08 01:18:23;;;;;;;;;;;;;;;5.37;81.11;99325.16;5051405;28;19912;-29
2023/03/08 01:20:59;;;;;;;;;;;;;;;4.67;83.07;99324.63;5051054;28;20476;-30
2023/03/08 01:23:25;;;;;;;;;;;;;;;4.81;84.79;99326.28;5050645;28;19913;-30
2023/03/08 01:26:00;;;;;;;;;;;;;;;4.83;84.92;99328.72;5049423;28;19913;-30
2023/03/08 01:28:26;;;;;;;;;;;;;;;4.77;83.45;99332.97;5050841;28;19999;-29
2023/03/08 01:30:51;;;;;;;;;;;;;;;4.42;83.77;99340.97;5051223;28;20015;-27
2023/03/08 01:33:19;;;;;;;;;;;;;;;4.30;84.93;99339.09;5050851;28;20438;-29
2023/03/08 01:35:45;;;;;;;;;;;;;;;4.40;85.34;99340.34;5050698;28;19912;-30
2023/03/08 01:38:10;;;;;;;;;;;;;;;4.44;86.94;99335.50;5051116;28;19912;-29
2023/03/08 01:40:35;;;;;;;;;;;;;;;4.50;86.78;99328.63;5050798;28;20364;-30
2023/03/08 01:43:10;;;;;;;;;;;;;;;4.68;86.87;99326.25;5050393;28;19920;-29
2023/03/08 01:45:54;;;;;;;;;;;;;;;4.66;88.17;99317.72;5050512;28;20386;-29
2023/03/08 01:48:24;;;;;;;;;;;;;;;4.26;89.72;99320.19;5050626;28;19942;-31
2023/03/08 01:50:49;;;;;;;;;;;;;;;4.51;88.22;99325.78;5050610;28;19917;-31
2023/03/08 01:53:15;;;;;;;;;;;;;;;4.25;89.26;99326.50;5049965;28;19913;-28
2023/03/08 01:55:41;;;;;;;;;;;;;;;4.63;87.79;99326.81;5050681;28;19916;-29
2023/03/08 01:58:06;;;;;;;;;;;;;;;4.71;87.32;99336.41;5050446;28;19916;-28
2023/03/08 02:00:32;;;;;;;;;;;;;;;4.73;87.89;99337.03;5050482;28;19955;-30
2023/03/08 02:02:59;;;;;;;;;;;;;;;4.61;88.71;99331.50;5050179;28;20825;-29
2023/03/08 02:05:25;;;;;;;;;;;;;;;4.70;87.67;99334.78;5049999;28;19955;-29
2023/03/08 02:07:51;;;;;;;;;;;;;;;4.81;86.77;99342.13;5049957;28;20733;-29
2023/03/08 02:10:16;;;;;;;;;;;;;;;4.99;85.71;99340.75;5050345;28;19917;-29
2023/03/08 02:12:45;;;;;;;;;;;;;;;4.74;85.99;99333.38;5050278;28;20002;-29
2023/03/08 02:15:13;;;;;;;;;;;;;;;5.02;85.58;99337.69;5050283;28;20464;-29
2023/03/08 02:17:39;;;;;;;;;;;;;;;5.01;84.87;99347.47;5050087;28;19920;-27
2023/03/08 02:20:14;;;;;;;;;;;;;;;5.05;84.82;99339.97;5049839;28;19916;-29
2023/03/08 02:22:40;;;;;;;;;;;;;;;5.32;82.64;99347.94;5050266;28;19921;-29
2023/03/08 02:25:15;;;;;;;;;;;;;;;5.16;81.89;99344.63;5048642;28;19969;-28
2023/03/08 02:27:40;;;;;;;;;;;;;;;4.41;87.22;99347.28;5049869;28;20308;-28
2023/03/08 02:30:06;;;;;;;;;;;;;;;4.27;89.12;99337.66;5049850;28;19917;-31
2023/03/08 02:32:31;;;;;;;;;;;;;;;4.52;88.51;99340.63;5049797;28;19928;-28
2023/03/08 02:34:56;;;;;;;;;;;;;;;4.15;89.30;99339.22;5048959;28;20086;-30
2023/03/08 02:37:21;;;;;;;;;;;;;;;4.04;89.77;99345.84;5049829;28;19923;-29
2023/03/08 02:39:47;;;;;;;;;;;;;;;3.77;90.20;99342.22;5049850;28;20421;-29
2023/03/08 02:42:12;;;;;;;;;;;;;;;3.60;90.45;99349.63;5049662;28;19917;-28
2023/03/08 02:44:40;;;;;;;;;;;;;;;3.41;92.52;99340.53;5049841;28;19916;-28
2023/03/08 02:47:05;;;;;;;;;;;;;;;3.40;92.72;99344.19;5049576;28;19936;-29
2023/03/08 02:49:30;;;;;;;;;;;;;;;3.92;91.24;99353.47;5049348;28;20316;-30
2023/03/08 02:51:55;;;;;;;;;;;;;;;4.10;89.54;99350.34;5049674;28;19913;-27
2023/03/08 02:54:23;;;;;;;;;;;;;;;4.00;88.81;99363.06;5049759;28;19912;-30
2023/03/08 02:56:48;;;;;;;;;;;;;;;3.86;88.01;99361.34;5049430;28;20451;-29
2023/03/08 02:59:14;;;;;;;;;;;;;;;3.70;87.34;99365.09;5049352;28;19916;-29
2023/03/08 03:01:39;;;;;;;;;;;;;;;3.95;86.66;99368.94;5049483;28;20011;-29
2023/03/08 03:04:04;;;;;;;;;;;;;;;4.19;84.95;99374.78;5049395;28;19935;-30
2023/03/08 03:06:29;;;;;;;;;;;;;;;4.23;86.65;99381.31;5049342;28;19912;-36
2023/03/08 03:08:55;;;;;;;;;;;;;;;4.19;85.36;99372.94;5049493;28;19921;-29
2023/03/08 03:11:21;;;;;;;;;;;;;;;4.15;86.95;99374.34;5049326;28;19923;-30
2023/03/08 03:13:52;;;;;;;;;;;;;;;4.15;86.29;99370.91;5049347;28;19970;-30
2023/03/08 03:16:17;;;;;;;;;;;;;;;4.17;86.03;99364.41;5049331;28;20023;-29
2023/03/08 03:18:43;;;;;;;;;;;;;;;4.11;86.57;99367.81;5048945;28;20011;-29
2023/03/08 03:21:09;;;;;;;;;;;;;;;3.61;88.86;99370.50;5049200;28;19912;-29
2023/03/08 03:23:35;;;;;;;;;;;;;;;3.96;86.87;99373.22;5049204;28;20018;-31
2023/03/08 03:26:07;;;;;;;;;;;;;;;3.88;87.35;99389.16;5049328;28;20028;-28
2023/03/08 03:28:33;;;;;;;;;;;;;;;3.80;86.46;99391.94;5049149;28;19971;-29
2023/03/08 03:30:58;;;;;;;;;;;;;;;3.69;86.71;99392.47;5049317;28;20309;-29
2023/03/08 03:33:23;;;;;;;;;;;;;;;3.10;91.25;99391.72;5048831;28;19912;-29
2023/03/08 03:35:49;;;;;;;;;;;;;;;3.28;91.56;99393.13;5049308;28;20015;-29
2023/03/08 03:38:14;;;;;;;;;;;;;;;3.13;92.58;99390.56;5049269;28;19913;-29
2023/03/08 03:40:39;;;;;;;;;;;;;;;3.28;92.88;99388.66;5049265;28;19920;-29
2023/03/08 03:43:04;;;;;;;;;;;;;;;3.15;93.53;99384.09;5048904;28;19925;-29
2023/03/08 03:45:30;;;;;;;;;;;;;;;3.52;93.05;99390.09;5049591;28;20452;-29
2023/03/08 03:47:55;;;;;;;;;;;;;;;3.61;90.67;99388.97;5052651;28;19917;-31
2023/03/08 03:50:20;;;;;;;;;;;;;;;3.56;90.05;99386.09;5053364;28;19913;-29
2023/03/08 03:52:46;;;;;;;;;;;;;;;3.39;90.21;99387.34;5052822;28;19943;-30
2023/03/08 03:55:11;;;;;;;;;;;;;;;3.36;89.97;99385.09;5053128;28;19913;-29
2023/03/08 03:57:36;;;;;;;;;;;;;;;3.16;90.78;99392.81;5052345;28;19990;-30
2023/03/08 04:00:03;;;;;;;;;;;;;;;3.08;91.87;99396.38;5053115;28;19916;-30
2023/03/08 04:02:29;;;;;;;;;;;;;;;3.27;89.67;99402.03;5052328;28;20107;-29
2023/03/08 04:04:54;;;;;;;;;;;;;;;3.05;90.42;99399.38;5052681;28;19912;-29
2023/03/08 04:07:19;;;;;;;;;;;;;;;3.03;91.08;99404.03;5052433;28;20003;-30
2023/03/08 04:09:46;;;;;;;;;;;;;;;3.09;91.88;99405.91;5052569;28;19920;-30
2023/03/08 04:12:11;;;;;;;;;;;;;;;3.24;90.58;99407.69;5051214;28;19913;-29
2023/03/08 04:14:39;;;;;;;;;;;;;;;3.41;89.41;99409.88;5052393;28;20289;-29
2023/03/08 04:17:04;;;;;;;;;;;;;;;3.19;90.15;99406.44;5052156;28;20338;-29
2023/03/08 04:19:29;;;;;;;;;;;;;;;3.10;91.86;99412.00;5052154;28;19923;-28
2023/03/08 04:21:55;;;;;;;;;;;;;;;3.07;91.19;99407.09;5052283;28;19963;-29
2023/03/08 04:24:20;;;;;;;;;;;;;;;3.39;89.33;99400.53;5052041;28;20435;-30
2023/03/08 04:26:45;;;;;;;;;;;;;;;3.47;87.89;99412.75;5052176;28;19978;-29
2023/03/08 04:29:16;;;;;;;;;;;;;;;3.48;87.27;99419.69;5052108;28;19913;-28
2023/03/08 04:31:41;;;;;;;;;;;;;;;3.20;87.72;99415.94;5051925;28;20320;-29
2023/03/08 04:34:06;;;;;;;;;;;;;;;3.48;86.82;99409.94;5052274;28;19917;-31
2023/03/08 04:36:32;;;;;;;;;;;;;;;3.46;86.92;99411.97;5051954;28;20058;-29
2023/03/08 04:38:57;;;;;;;;;;;;;;;2.80;88.72;99423.41;5051947;28;19919;-29
2023/03/08 04:41:23;;;;;;;;;;;;;;;2.56;90.44;99421.09;5051875;28;20019;-30
2023/03/08 04:43:52;;;;;;;;;;;;;;;2.54;89.81;99425.72;5052032;28;20273;-32
2023/03/08 04:46:19;;;;;;;;;;;;;;;2.74;89.06;99434.69;5051505;28;19913;-28
2023/03/08 04:48:45;;;;;;;;;;;;;;;2.80;89.04;99433.94;5051908;28;19934;-28
2023/03/08 04:51:11;;;;;;;;;;;;;;;2.83;89.09;99432.75;5051741;28;20377;-30
2023/03/08 04:53:38;;;;;;;;;;;;;;;3.00;88.14;99433.34;5051640;28;19912;-29
2023/03/08 04:56:05;;;;;;;;;;;;;;;3.07;88.83;99439.53;5051455;28;19916;-29
2023/03/08 04:58:30;;;;;;;;;;;;;;;3.12;89.70;99434.50;5051029;28;19944;-31
2023/03/08 05:00:56;;;;;;;;;;;;;;;2.81;91.85;99440.84;5051230;28;20669;-29
2023/03/08 05:03:21;;;;;;;;;;;;;;;3.01;91.63;99445.53;5051456;28;20411;-29
2023/03/08 05:05:50;;;;;;;;;;;;;;;3.14;91.51;99450.13;5051448;28;19956;-29
2023/03/08 05:08:16;;;;;;;;;;;;;;;3.04;91.01;99450.41;5051382;28;19966;-30
2023/03/08 05:10:58;;;;;;;;;;;;;;;2.53;91.37;99453.81;5051347;28;19917;-28
2023/03/08 05:13:24;;;;;;;;;;;;;;;2.31;90.45;99447.69;5050047;28;19963;-29
2023/03/08 05:15:49;;;;;;;;;;;;;;;1.89;92.79;99459.56;5051464;28;19943;-29
2023/03/08 05:18:15;;;;;;;;;;;;;;;1.78;94.60;99447.66;5051157;28;19964;-30
2023/03/08 05:20:40;;;;;;;;;;;;;;;1.91;96.55;99454.94;5051192;28;19978;-29
2023/03/08 05:23:05;;;;;;;;;;;;;;;2.26;96.10;99465.78;5050991;28;19920;-28
2023/03/08 05:25:31;;;;;;;;;;;;;;;2.45;96.40;99474.16;5050747;28;19913;-29
2023/03/08 05:27:56;;;;;;;;;;;;;;;3.08;93.89;99475.41;5050707;28;20007;-29
2023/03/08 05:30:21;;;;;;;;;;;;;;;3.45;92.02;99473.56;5051231;28;19917;-29
2023/03/08 05:32:47;;;;;;;;;;;;;;;3.74;89.89;99464.75;5050817;28;20377;-30
2023/03/08 05:35:12;;;;;;;;;;;;;;;3.88;89.44;99470.13;5050789;28;19940;-30
2023/03/08 05:37:37;;;;;;;;;;;;;;;3.83;90.73;99465.44;5050613;28;20305;-29
2023/03/08 05:40:05;;;;;;;;;;;;;;;4.21;90.41;99470.41;5050422;28;20011;-30
2023/03/08 05:42:30;;;;;;;;;;;;;;;4.24;89.91;99472.66;5050388;28;19931;-29
2023/03/08 05:44:56;;;;;;;;;;;;;;;3.86;93.40;99472.94;5050683;28;19917;-29
2023/03/08 05:47:21;;;;;;;;;;;;;;;3.95;94.44;99463.91;5050334;28;20022;-30
2023/03/08 05:49:46;;;;;;;;;;;;;;;3.95;94.11;99458.63;5050727;28;20309;-28
2023/03/08 05:52:11;;;;;;;;;;;;;;;4.21;93.01;99462.50;5050450;28;19916;-29
2023/03/08 05:54:38;;;;;;;;;;;;;;;4.45;92.34;99457.75;5050493;28;20007;-29
2023/03/08 05:57:03;;;;;;;;;;;;;;;4.50;91.48;99463.28;5048826;28;19913;-31
2023/03/08 05:59:29;;;;;;;;;;;;;;;4.46;92.82;99460.22;5049141;28;20066;-29
2023/03/08 06:01:54;;;;;;;;;;;;;;;4.85;92.17;99468.56;5050427;28;19956;-29
2023/03/08 06:04:19;;;;;;;;;;;;;;;4.71;92.57;99472.94;5050306;28;20397;-29
2023/03/08 06:06:45;;;;;;;;;;;;;;;4.59;93.68;99475.31;5050113;28;19924;-30
2023/03/08 06:09:10;;;;;;;;;;;;;;;4.59;93.22;99488.53;5049222;28;19916;-31
2023/03/08 06:11:35;;;;;;;;;;;;;;;5.14;92.14;99489.41;5049798;28;19912;-29
2023/03/08 06:14:00;;;;;;;;;;;;;;;5.43;90.59;99490.09;5050232;28;20418;-29
2023/03/08 06:16:26;;;;;;;;;;;;;;;5.96;87.49;99500.00;5050402;28;19917;-29
2023/03/08 06:18:51;;;;;;;;;;;;;;;6.09;87.50;99494.72;5049952;28;20014;-30
2023/03/08 06:21:17;;;;;;;;;;;;;;;6.40;85.38;99499.38;5050171;28;19923;-30
2023/03/08 06:23:43;;;;;;;;;;;;;;;6.66;84.43;99497.72;5050013;28;19917;-32
2023/03/08 06:26:09;;;;;;;;;;;;;;;6.68;85.20;99503.63;5049904;28;19966;-29
2023/03/08 06:28:35;;;;;;;;;;;;;;;6.95;84.21;99506.22;5050067;28;20039;-32
2023/03/08 06:31:00;;;;;;;;;;;;;;;7.15;84.70;99512.28;5049867;28;19999;-30
2023/03/08 06:33:27;;;;;;;;;;;;;;;7.35;83.27;99508.69;5049805;28;19917;-30
2023/03/08 06:35:55;;;;;;;;;;;;;;;7.36;83.81;99518.31;5049871;28;20670;-29
2023/03/08 06:38:21;;;;;;;;;;;;;;;7.60;83.67;99525.53;5048295;28;19943;-31
2023/03/08 06:40:46;;;;;;;;;;;;;;;7.83;80.89;99529.47;5049599;28;20384;-29
2023/03/08 06:43:11;;;;;;;;;;;;;;;7.90;81.28;99524.91;5049390;28;19978;-29
2023/03/08 06:45:37;;;;;;;;;;;;;;;7.86;79.71;99534.34;5049493;28;19925;-30
2023/03/08 06:48:02;;;;;;;;;;;;;;;7.93;80.93;99539.63;5049882;28;19951;-30
2023/03/08 06:50:28;;;;;;;;;;;;;;;8.10;80.05;99540.72;5048468;28;19917;-30
2023/03/08 06:52:53;;;;;;;;;;;;;;;8.11;79.61;99550.34;5049506;28;20399;-29
2023/03/08 06:55:19;;;;;;;;;;;;;;;8.19;81.05;99543.91;5049219;28;19913;-29
2023/03/08 06:57:45;;;;;;;;;;;;;;;8.59;79.33;99543.63;5049582;28;19917;-29
2023/03/08 07:00:12;;;;;;;;;;;;;;;8.49;78.37;99545.97;5049619;28;19955;-30
2023/03/08 07:02:37;;;;;;;;;;;;;;;8.71;78.54;99538.41;5049496;28;19912;-30
2023/03/08 07:05:05;;;;;;;;;;;;;;;8.71;79.29;99541.88;5049346;28;19920;-30
2023/03/08 07:07:31;;;;;;;;;;;;;;;9.10;78.93;99544.34;5049233;28;19967;-29
2023/03/08 07:09:56;;;;;;;;;;;;;;;9.22;75.32;99548.69;5049235;28;19959;-29
2023/03/08 07:12:22;;;;;;;;;;;;;;;9.17;75.87;99555.72;5049557;28;20003;-29
2023/03/08 07:14:47;;;;;;;;;;;;;;;9.42;76.06;99553.00;5049563;28;19913;-30
2023/03/08 07:17:12;;;;;;;;;;;;;;;9.51;74.19;99567.59;5048169;28;19912;-30
2023/03/08 07:19:38;;;;;;;;;;;;;;;9.80;73.67;99570.50;5049340;28;19975;-29
2023/03/08 07:22:03;;;;;;;;;;;;;;;9.79;73.90;99574.22;5052654;28;19921;-28
2023/03/08 07:24:28;;;;;;;;;;;;;;;9.95;72.82;99572.75;5052982;28;19924;-29
2023/03/08 07:26:53;;;;;;;;;;;;;;;9.90;71.60;99578.75;5053905;28;20612;-29
2023/03/08 07:29:19;;;;;;;;;;;;;;;9.97;71.39;99579.50;5053132;28;19920;-28
2023/03/08 07:31:44;;;;;;;;;;;;;;;9.82;71.27;99579.09;5053307;28;20369;-29
2023/03/08 07:34:12;;;;;;;;;;;;;;;10.17;70.52;99586.38;5053533;28;19912;-29
2023/03/08 07:36:38;;;;;;;;;;;;;;;10.48;65.36;99581.81;5052931;28;19912;-32
2023/03/08 07:39:04;;;;;;;;;;;;;;;10.57;66.63;99585.78;5052760;28;19913;-29
2023/03/08 07:41:31;;;;;;;;;;;;;;;10.82;66.17;99581.03;5052562;28;19928;-29
2023/03/08 07:43:57;;;;;;;;;;;;;;;10.55;66.26;99578.03;5051268;28;19921;-29
2023/03/08 07:46:22;;;;;;;;;;;;;;;10.36;69.94;99577.31;5052793;28;19916;-28
2023/03/08 07:48:47;;;;;;;;;;;;;;;10.51;69.50;99568.06;5052707;28;19917;-29
2023/03/08 07:51:13;;;;;;;;;;;;;;;10.82;66.57;99573.03;5052587;28;20330;-30
2023/03/08 07:53:38;;;;;;;;;;;;;;;11.02;65.37;99569.22;5052605;28;19913;-29
2023/03/08 07:56:04;;;;;;;;;;;;;;;11.04;68.00;99575.13;5052473;28;20057;-29
2023/03/08 07:58:29;;;;;;;;;;;;;;;11.50;67.69;99562.72;5052590;28;19917;-29
2023/03/08 08:00:55;;;;;;;;;;;;;;;11.74;65.34;99573.31;5052633;28;19913;-29
2023/03/08 08:03:20;;;;;;;;;;;;;;;11.48;63.57;99564.81;5052265;28;19917;-31
2023/03/08 08:05:46;;;;;;;;;;;;;;;11.87;61.52;99562.38;5052392;28;19912;-31
2023/03/08 08:08:12;;;;;;;;;;;;;;;12.22;60.23;99564.06;5052282;28;19924;-32
2023/03/08 08:10:41;;;;;;;;;;;;;;;12.11;60.85;99568.41;5052495;28;20003;-32
2023/03/08 08:13:09;;;;;;;;;;;;;;;12.32;61.06;99566.06;5050884;28;20773;-32
2023/03/08 08:15:34;;;;;;;;;;;;;;;12.56;59.74;99575.56;5052153;28;20011;-33
2023/03/08 08:18:00;;;;;;;;;;;;;;;12.75;58.30;99572.63;5052301;28;20062;-32
2023/03/08 08:20:26;;;;;;;;;;;;;;;12.61;57.37;99577.53;5050851;28;19985;-31
2023/03/08 08:22:54;;;;;;;;;;;;;;;12.86;56.40;99580.56;5052369;28;19928;-31
2023/03/08 08:25:20;;;;;;;;;;;;;;;13.10;56.74;99566.97;5051904;28;20009;-32
2023/03/08 08:27:45;;;;;;;;;;;;;;;13.24;54.57;99570.09;5052157;28;19998;-31
2023/03/08 08:30:12;;;;;;;;;;;;;;;13.18;55.70;99565.75;5051918;28;19917;-31
2023/03/08 08:32:37;;;;;;;;;;;;;;;13.10;55.13;99572.34;5050968;28;20340;-30
2023/03/08 08:35:03;;;;;;;;;;;;;;;13.42;55.90;99572.50;5051844;28;19919;-29
2023/03/08 08:37:30;;;;;;;;;;;;;;;13.62;55.76;99563.88;5051415;28;19917;-31
2023/03/08 08:39:55;;;;;;;;;;;;;;;13.65;54.76;99555.34;5051602;28;20375;-30
2023/03/08 08:42:21;;;;;;;;;;;;;;;13.66;54.12;99565.00;5051651;28;19923;-31
2023/03/08 08:44:46;;;;;;;;;;;;;;;14.01;53.75;99569.09;5051809;28;19925;-32
2023/03/08 08:47:11;;;;;;;;;;;;;;;14.12;51.94;99558.47;5051500;28;19917;-31
2023/03/08 08:49:37;;;;;;;;;;;;;;;14.59;51.34;99565.88;5051507;28;20304;-31
2023/03/08 08:52:02;;;;;;;;;;;;;;;14.47;51.26;99561.47;5051255;28;19967;-31
2023/03/08 08:54:28;;;;;;;;;;;;;;;14.67;52.01;99565.41;5051552;28;19912;-31
2023/03/08 08:56:55;;;;;;;;;;;;;;;14.80;49.08;99569.50;5051392;28;19913;-31
2023/03/08 08:59:20;;;;;;;;;;;;;;;14.73;50.66;99575.09;5051304;28;19913;-30
2023/03/08 09:01:48;;;;;;;;;;;;;;;14.81;50.57;99568.41;5051565;28;19962;-30
2023/03/08 09:04:15;;;;;;;;;;;;;;;15.03;50.24;99568.28;5051247;28;19919;-30
2023/03/08 09:06:40;;;;;;;;;;;;;;;14.65;51.71;99583.63;5051114;28;19919;-30
2023/03/08 09:09:06;;;;;;;;;;;;;;;14.97;49.53;99574.69;5051254;28;19916;-30
2023/03/08 09:11:32;;;;;;;;;;;;;;;14.91;50.63;99578.41;5050673;28;19917;-31
2023/03/08 09:13:57;;;;;;;;;;;;;;;15.15;49.55;99576.94;5049587;28;19913;-30
2023/03/08 09:16:30;;;;;;;;;;;;;;;15.25;49.51;99576.19;5050409;28;20381;-31
2023/03/08 09:18:56;;;;;;;;;;;;;;;15.27;48.90;99568.69;5050101;28;19967;-31
2023/03/08 09:21:22;;;;;;;;;;;;;;;15.37;47.21;99567.94;5023739;28;19928;-32
2023/03/08 09:23:47;;;;;;;;;;;;;;;15.65;47.71;99564.81;5032854;28;19928;-30
2023/03/08 09:26:13;;;;;;;;;;;;;;;15.45;47.61;99556.66;5033069;28;19964;-31
2023/03/08 09:28:38;;;;;;;;;;;;;;;15.91;46.80;99556.81;5037326;28;19917;-31
2023/03/08 09:31:10;;;;;;;;;;;;;;;15.95;47.42;99565.94;5043957;28;19923;-29
2023/03/08 09:33:36;;;;;;;;;;;;;;;16.23;47.72;99558.47;5034492;28;19960;-31
2023/03/08 09:36:02;;;;;;;;;;;;;;;16.47;45.02;99567.63;5042847;28;19920;-31
2023/03/08 09:38:27;;;;;;;;;;;;;;;16.69;45.04;99558.41;5036378;28;19928;-31
2023/03/08 09:40:59;;;;;;;;;;;;;;;16.38;42.46;99555.75;5042355;28;20381;-31
2023/03/08 09:43:32;;;;;;;;;;;;;;;16.78;43.33;99556.00;5040127;28;19927;-32
2023/03/08 09:45:58;;;;;;;;;;;;;;;16.96;43.66;99549.25;5038672;28;19921;-32
2023/03/08 09:48:28;;;;;;;;;;;;;;;17.03;42.66;99541.69;5042689;28;19940;-30
2023/03/08 09:50:56;;;;;;;;;;;;;;;17.51;42.78;99539.34;5037784;28;20423;-33
2023/03/08 09:53:31;;;;;;;;;;;;;;;17.32;42.28;99539.16;5034062;28;19928;-32
2023/03/08 09:55:56;;;;;;;;;;;;;;;17.66;41.12;99525.78;5043424;28;19926;-31
2023/03/08 09:58:21;;;;;;;;;;;;;;;17.90;40.06;99535.09;5034633;28;19916;-32
2023/03/08 10:00:47;;;;;;;;;;;;;;;18.09;38.51;99521.75;5041855;28;19924;-30
2023/03/08 10:03:21;;;;;;;;;;;;;;;18.44;39.64;99526.84;5041895;28;19923;-32
2023/03/08 10:06:05;;;;;;;;;;;;;;;18.98;39.18;99532.25;5029952;28;19936;-32
2023/03/08 10:08:39;;;;;;;;;;;;;;;18.95;38.50;99528.25;5029928;28;19913;-30
2023/03/08 10:11:12;;;;;;;;;;;;;;;18.91;39.07;99527.22;5029854;28;19913;-31
2023/03/08 10:13:41;;;;;;;;;;;;;;;19.12;38.04;99537.78;5029915;28;19944;-31
2023/03/08 10:16:15;;;;;;;;;;;;;;;18.73;38.33;99531.41;5029768;28;20015;-31
2023/03/08 10:18:43;;;;;;;;;;;;;;;18.95;38.41;99533.66;5029820;28;20007;-31
2023/03/08 10:21:11;;;;;;;;;;;;;;;19.16;37.51;99533.41;5029580;28;19920;-31
2023/03/08 10:23:37;;;;;;;;;;;;;;;18.95;36.73;99549.06;5029390;28;19913;-30
2023/03/08 10:26:05;;;;;;;;;;;;;;;19.17;38.50;99535.81;5029586;28;19921;-31
2023/03/08 10:28:31;;;;;;;;;;;;;;;18.91;38.44;99537.22;5029746;28;20403;-31
2023/03/08 10:30:58;;;;;;;;;;;;;;;19.11;37.40;99536.97;5029707;28;19917;-30
2023/03/08 10:33:25;;;;;;;;;;;;;;;19.28;36.58;99529.19;5029307;28;19913;-32
2023/03/08 10:35:55;;;;;;;;;;;;;;;19.38;38.13;99524.75;5029510;28;19949;-30
2023/03/08 10:38:22;;;;;;;;;;;;;;;19.33;36.33;99530.22;5029179;28;20023;-31
2023/03/08 10:40:47;;;;;;;;;;;;;;;19.21;37.36;99517.16;5029591;28;19919;-30
2023/03/08 10:43:25;;;;;;;;;;;;;;;19.42;36.35;99514.97;5029336;28;19921;-30
2023/03/08 10:46:04;;;;;;;;;;;;;;;19.90;35.56;99504.03;5028264;28;20003;-32
2023/03/08 10:48:30;;;;;;;;;;;;;;;20.31;37.93;99497.13;5029257;28;20389;-31
2023/03/08 10:51:03;;;;;;;;;;;;;;;21.02;32.64;99506.69;5029023;28;19915;-31
2023/03/08 10:53:29;;;;;;;;;;;;;;;20.83;33.39;99498.63;5029096;28;19924;-30
2023/03/08 10:55:55;;;;;;;;;;;;;;;20.71;33.19;99500.25;5028732;28;19913;-31
2023/03/08 10:58:37;;;;;;;;;;;;;;;20.53;33.23;99488.34;5029084;28;19913;-31
2023/03/08 11:01:20;;;;;;;;;;;;;;;20.75;35.30;99490.41;5029255;28;19978;-32
2023/03/08 11:03:45;;;;;;;;;;;;;;;21.33;32.79;99492.50;5029473;28;20436;-32
2023/03/08 11:06:14;;;;;;;;;;;;;;;20.86;32.08;99481.78;5029194;28;20016;-31
2023/03/08 11:08:49;;;;;;;;;;;;;;;20.41;34.17;99478.81;5029143;28;19913;-31
2023/03/08 11:11:14;;;;;;;;;;;;;;;19.78;34.30;99471.22;5029089;28;20439;-31
2023/03/08 11:13:45;;;;;;;;;;;;;;;20.14;32.26;99478.75;5028816;28;19944;-32
2023/03/08 11:16:17;;;;;;;;;;;;;;;20.35;32.88;99469.19;5029185;28;19967;-31
2023/03/08 11:19:01;;;;;;;;;;;;;;;20.58;33.97;99472.03;5029108;28;20015;-32
2023/03/08 11:21:33;;;;;;;;;;;;;;;20.48;32.45;99464.88;5028783;28;19913;-31
2023/03/08 11:24:05;;;;;;;;;;;;;;;20.09;31.37;99454.50;5028823;28;19959;-32
2023/03/08 11:26:41;;;;;;;;;;;;;;;20.46;31.08;99454.34;5029220;28;19913;-31
2023/03/08 11:29:06;;;;;;;;;;;;;;;20.98;28.34;99453.34;5029121;28;20312;-30
2023/03/08 11:31:31;;;;;;;;;;;;;;;21.39;28.50;99449.75;5028858;28;19917;-31
2023/03/08 11:34:06;;;;;;;;;;;;;;;22.04;27.90;99460.19;5028702;28;19913;-30
2023/03/08 11:36:39;;;;;;;;;;;;;;;21.95;29.81;99448.47;5028905;28;19913;-31
2023/03/08 11:39:07;;;;;;;;;;;;;;;21.16;27.97;99447.00;5029190;28;20016;-30
2023/03/08 11:41:40;;;;;;;;;;;;;;;21.60;27.37;99450.94;5028683;28;19978;-30
2023/03/08 11:44:05;;;;;;;;;;;;;;;21.76;28.96;99437.00;5028585;28;19921;-33
2023/03/08 11:46:39;;;;;;;;;;;;;;;22.04;29.50;99440.38;5028936;28;20021;-31
2023/03/08 11:49:20;;;;;;;;;;;;;;;22.41;30.56;99443.78;5028602;28;19913;-30
2023/03/08 11:51:51;;;;;;;;;;;;;;;22.94;27.34;99431.97;5027643;28;19923;-32
2023/03/08 11:54:31;;;;;;;;;;;;;;;22.80;26.55;99432.13;5029036;28;20499;-31
2023/03/08 11:56:58;;;;;;;;;;;;;;;22.10;29.19;99435.63;5028505;28;19940;-30
2023/03/08 11:59:28;;;;;;;;;;;;;;;22.15;28.71;99422.72;5028508;28;19913;-31
2023/03/08 12:02:01;;;;;;;;;;;;;;;21.95;28.26;99420.53;5029173;28;19913;-31
2023/03/08 12:04:52;;;;;;;;;;;;;;;21.77;26.85;99419.63;5028703;28;20014;-33
2023/03/08 12:07:36;;;;;;;;;;;;;;;21.60;26.33;99410.25;5028895;28;19952;-31
2023/03/08 12:10:13;;;;;;;;;;;;;;;21.14;26.47;99411.25;5032089;28;19917;-31
2023/03/08 12:12:40;;;;;;;;;;;;;;;20.89;28.49;99409.91;5032162;28;19951;-32
2023/03/08 12:15:24;;;;;;;;;;;;;;;21.25;29.20;99409.94;5032605;28;19920;-32
2023/03/08 12:17:52;;;;;;;;;;;;;;;22.08;28.15;99414.22;5032004;28;19917;-32
2023/03/08 12:20:19;;;;;;;;;;;;;;;23.36;25.24;99409.81;5031781;28;19988;-32
2023/03/08 12:22:53;;;;;;;;;;;;;;;23.56;26.17;99403.72;5031723;28;19919;-31
2023/03/08 12:25:19;;;;;;;;;;;;;;;22.80;24.59;99413.09;5031889;28;19967;-32
2023/03/08 12:27:44;;;;;;;;;;;;;;;22.52;25.86;99403.59;5031773;28;19948;-31
2023/03/08 12:30:09;;;;;;;;;;;;;;;22.41;26.03;99412.00;5031942;28;20369;-31
2023/03/08 12:32:41;;;;;;;;;;;;;;;22.26;26.20;99404.25;5031477;28;20003;-33
2023/03/08 12:35:23;;;;;;;;;;;;;;;21.79;27.97;99392.97;5031920;28;19917;-31
2023/03/08 12:37:55;;;;;;;;;;;;;;;22.18;27.19;99403.06;5030455;28;20312;-32
2023/03/08 12:40:36;;;;;;;;;;;;;;;22.51;27.21;99401.97;5031670;28;19923;-31
2023/03/08 12:43:12;;;;;;;;;;;;;;;22.82;26.94;99397.28;5031263;28;19986;-31
2023/03/08 12:45:38;;;;;;;;;;;;;;;22.98;26.23;99394.88;5031495;28;19919;-31
2023/03/08 12:48:04;;;;;;;;;;;;;;;23.21;26.69;99387.41;5031592;28;20007;-31
2023/03/08 12:50:30;;;;;;;;;;;;;;;23.30;26.56;99389.34;5031595;28;20028;-31
2023/03/08 12:52:57;;;;;;;;;;;;;;;23.03;26.03;99396.69;5031391;28;19967;-30